KPAM/PAM METAR and TAF weather

Enter ICAO airport designator
Station Type Date Time Source
KPAM METAR 2022/06/28 15:56 UTC NOAA

KPAM 281556Z AUTO 12008KT 10SM FEW032 32/24 A3006 RMK AO2 SLP182 T03160236 $


Station Type Date Time Source
KPAM Decoded METAR 2022/06/28 15:56 UTC NOAA

Tyndall Air Force Base, FL, United States (KPAM) 30-04N 085-35W 13M
Jun 28, 2022 - 11:56 AM EDT / 2022.06.28 1556 UTC
Wind: from the ESE (120 degrees) at 9 MPH (8 KT):0
Visibility: 10 mile(s):0
Sky conditions: mostly clear
Temperature: 88.9 F (31.6 C)
Heat index: 98.2 F (36.8 C):1
Dew Point: 74.5 F (23.6 C)
Relative Humidity: 62%
Pressure (altimeter): 30.06 in. Hg (1017 hPa)
ob: KPAM 281556Z AUTO 12008KT 10SM FEW032 32/24 A3006 RMK AO2 SLP182 T03160236
cycle: 16

Station Type Date Time Source
KPAM TAF 2022/06/28 11:59 UTC NOAA

TAF KPAM 281100Z 2811/2917 06006KT 9999 SCT020 QNH3002INS
BECMG 2815/2816 10009KT 9999 SCT020 QNH3006INS
TEMPO 2817/2821 14012G20KT 4800 TSRA BKN020CB
BECMG 2820/2821 14009KT 8000 -SHRA SCT020 QNH3002INS
BECMG 2822/2823 15006KT 9999 NSW SCT030 QNH3002INS
BECMG 2910/2911 10009KT 8000 -SHRA BKN030 QNH3009INS TX31/2819Z TN24/2811Z

Example: see airport list